Time;durP1;ratioP1;P1;durP2;ratioP2;P2;SDS_P1;SDS_P2;PMS_P1;PMS_P2;Temp;Humidity;BMP_temperature;BMP_pressure;BME280_temperature;BME280_humidity;BME280_pressure;Samples;Min_cycle;Max_cycle;Signal;HPM_P1;HPM_P2
2022/06/11 00:01:56;;;;;;;5.18;2.63;;;18.70;99.90;;;;;;5112405;27;20215;-68
2022/06/11 00:04:27;;;;;;;9.65;3.17;;;18.70;99.90;;;;;;5112665;28;20285;-68
2022/06/11 00:07:02;;;;;;;10.13;4.35;;;18.70;99.90;;;;;;5108118;28;20212;-68
2022/06/11 00:09:29;;;;;;;6.57;4.35;;;18.70;99.90;;;;;;5111300;28;20193;-68
2022/06/11 00:11:57;;;;;;;12.20;6.18;;;18.70;99.90;;;;;;5112971;28;20655;-68
2022/06/11 00:14:30;;;;;;;13.77;6.88;;;18.60;99.90;;;;;;5114046;28;20201;-68
2022/06/11 00:16:59;;;;;;;12.95;7.47;;;18.60;99.90;;;;;;5114549;28;20196;-69
2022/06/11 00:19:26;;;;;;;11.93;5.90;;;18.60;99.90;;;;;;5113543;28;20649;-69
2022/06/11 00:21:55;;;;;;;14.65;6.85;;;18.70;99.90;;;;;;5114597;28;20197;-68
2022/06/11 00:24:23;;;;;;;11.77;5.88;;;18.70;99.90;;;;;;5114204;28;20614;-68
2022/06/11 00:26:52;;;;;;;12.02;5.43;;;18.60;99.90;;;;;;5109726;28;20197;-68
2022/06/11 00:29:20;;;;;;;12.70;5.82;;;18.60;99.90;;;;;;5112168;28;20284;-68
2022/06/11 00:31:49;;;;;;;8.68;3.70;;;18.60;99.90;;;;;;5113294;28;20280;-68
2022/06/11 00:34:17;;;;;;;6.47;3.70;;;18.60;99.90;;;;;;5114243;28;20261;-68
2022/06/11 00:36:45;;;;;;;5.97;2.65;;;18.60;99.90;;;;;;5105639;28;20628;-68
2022/06/11 00:39:15;;;;;;;7.05;3.83;;;18.60;99.90;;;;;;5101230;28;20216;-68
2022/06/11 00:41:46;;;;;;;8.40;4.95;;;18.60;99.90;;;;;;5113365;28;20251;-68
2022/06/11 00:44:14;;;;;;;11.52;6.82;;;18.60;99.90;;;;;;5113137;28;20205;-69
2022/06/11 00:46:52;;;;;;;6.75;4.32;;;18.60;99.90;;;;;;5113426;28;20204;-68
2022/06/11 00:49:24;;;;;;;8.88;4.88;;;18.50;99.90;;;;;;5112040;28;20225;-68
2022/06/11 00:51:58;;;;;;;6.32;4.32;;;18.50;99.90;;;;;;5113565;28;20237;-68
2022/06/11 00:54:27;;;;;;;5.88;4.03;;;18.60;99.90;;;;;;5113013;28;20205;-68
2022/06/11 00:56:58;;;;;;;5.80;3.47;;;18.50;99.90;;;;;;5111829;28;20574;-68
2022/06/11 00:59:32;;;;;;;5.78;4.07;;;18.60;99.90;;;;;;5112574;28;20274;-68
2022/06/11 01:02:01;;;;;;;8.13;3.88;;;18.60;99.90;;;;;;5106664;28;20228;-68
2022/06/11 01:04:44;;;;;;;5.20;4.22;;;18.50;99.90;;;;;;5112432;28;20227;-69
2022/06/11 01:07:41;;;;;;;4.45;3.83;;;18.50;99.90;;;;;;5100907;28;20201;-68
2022/06/11 01:10:31;;;;;;;6.53;4.18;;;18.40;99.90;;;;;;5097928;28;20209;-69
2022/06/11 01:13:06;;;;;;;7.65;4.00;;;18.40;99.90;;;;;;5092997;28;20742;-69
2022/06/11 01:15:37;;;;;;;5.07;3.30;;;18.40;99.90;;;;;;5094699;28;20205;-68
2022/06/11 01:18:20;;;;;;;6.00;3.50;;;18.30;99.90;;;;;;5092490;28;20232;-68
2022/06/11 01:20:56;;;;;;;4.47;3.58;;;18.30;99.90;;;;;;5102835;28;20311;-69
2022/06/11 01:23:59;;;;;;;6.05;3.00;;;18.30;99.90;;;;;;5113490;28;20613;-68
2022/06/11 01:26:47;;;;;;;6.57;3.05;;;18.30;99.90;;;;;;5103866;28;20244;-68
2022/06/11 01:29:50;;;;;;;3.65;2.90;;;18.30;99.90;;;;;;5050124;28;20205;-68
2022/06/11 01:32:34;;;;;;;5.55;2.70;;;18.30;99.90;;;;;;5092612;28;20205;-68
2022/06/11 01:35:19;;;;;;;4.40;2.63;;;18.30;99.90;;;;;;5094226;28;20197;-68
2022/06/11 01:37:52;;;;;;;4.45;2.50;;;18.20;99.90;;;;;;5111952;28;20200;-68
2022/06/11 01:40:35;;;;;;;5.65;2.65;;;18.20;99.90;;;;;;5109873;28;20248;-68
2022/06/11 01:43:13;;;;;;;5.43;2.70;;;18.20;99.90;;;;;;5112870;28;20201;-68
2022/06/11 01:45:42;;;;;;;4.75;2.70;;;18.10;99.90;;;;;;5111084;28;20232;-68
2022/06/11 01:48:16;;;;;;;4.38;2.58;;;18.10;99.90;;;;;;5113149;28;20205;-68
2022/06/11 01:50:48;;;;;;;4.75;2.58;;;18.00;99.90;;;;;;5112395;28;20201;-68
2022/06/11 01:53:43;;;;;;;3.63;2.65;;;18.00;99.90;;;;;;5095779;28;20559;-68
2022/06/11 01:56:34;;;;;;;3.42;2.53;;;18.00;99.90;;;;;;5091104;28;20244;-68
2022/06/11 01:59:16;;;;;;;3.67;2.40;;;18.10;99.90;;;;;;5099596;28;20197;-68
2022/06/11 02:02:06;;;;;;;5.28;2.70;;;18.00;99.90;;;;;;5106768;28;20626;-68
2022/06/11 02:04:47;;;;;;;6.05;2.65;;;18.00;99.90;;;;;;5108606;28;20266;-68
2022/06/11 02:07:19;;;;;;;5.68;2.53;;;18.00;99.90;;;;;;5112002;28;20708;-68
2022/06/11 02:09:54;;;;;;;6.53;2.50;;;18.00;99.90;;;;;;5109477;28;20223;-68
2022/06/11 02:12:28;;;;;;;3.80;2.47;;;18.10;99.90;;;;;;5112470;28;20224;-68
2022/06/11 02:15:00;;;;;;;2.63;2.40;;;18.10;99.90;;;;;;5112030;28;20707;-68
2022/06/11 02:17:32;;;;;;;4.55;2.88;;;18.10;99.90;;;;;;5112392;28;20558;-68
2022/06/11 02:20:04;;;;;;;4.05;2.30;;;18.00;99.90;;;;;;5111525;28;20225;-68
2022/06/11 02:22:34;;;;;;;4.03;2.42;;;18.00;99.90;;;;;;5097336;28;20310;-68
2022/06/11 02:25:07;;;;;;;3.40;2.53;;;18.00;99.90;;;;;;5106090;28;20246;-68
2022/06/11 02:27:36;;;;;;;4.15;2.40;;;17.90;99.90;;;;;;5111880;28;20300;-68
2022/06/11 02:30:09;;;;;;;6.15;2.80;;;17.90;99.90;;;;;;5111681;28;20628;-68
2022/06/11 02:32:37;;;;;;;4.35;2.65;;;18.00;99.90;;;;;;5112158;28;20192;-68
2022/06/11 02:35:09;;;;;;;4.15;2.40;;;18.00;99.90;;;;;;5105089;28;20202;-68
2022/06/11 02:37:39;;;;;;;3.60;2.58;;;18.00;99.90;;;;;;5090165;28;20275;-68
2022/06/11 02:40:11;;;;;;;2.60;2.40;;;17.90;99.90;;;;;;5104793;28;20300;-68
2022/06/11 02:42:38;;;;;;;3.40;2.72;;;17.90;99.90;;;;;;5111904;28;20196;-69
2022/06/11 02:45:07;;;;;;;4.35;2.75;;;18.00;99.90;;;;;;5111762;28;20205;-69
2022/06/11 02:47:34;;;;;;;5.90;2.60;;;17.90;99.90;;;;;;5111813;28;20743;-68
2022/06/11 02:50:03;;;;;;;4.40;2.67;;;17.90;99.90;;;;;;5111286;28;20205;-68
2022/06/11 02:52:31;;;;;;;4.38;2.42;;;17.90;99.90;;;;;;5111618;28;20192;-68
2022/06/11 02:54:58;;;;;;;4.05;2.40;;;17.80;99.90;;;;;;5111607;28;20204;-68
2022/06/11 02:57:30;;;;;;;4.90;2.67;;;18.00;99.90;;;;;;5111572;28;20295;-68
2022/06/11 02:59:58;;;;;;;5.85;2.90;;;17.90;99.90;;;;;;5109278;28;20227;-68
2022/06/11 03:02:25;;;;;;;3.72;2.40;;;18.00;99.90;;;;;;5110108;28;20237;-70
2022/06/11 03:04:55;;;;;;;4.25;2.83;;;17.90;99.90;;;;;;5104248;28;20549;-71
2022/06/11 03:07:23;;;;;;;3.65;2.42;;;17.80;99.90;;;;;;5090546;28;20699;-71
2022/06/11 03:09:50;;;;;;;5.40;2.40;;;17.80;99.90;;;;;;5107911;27;20248;-71
2022/06/11 03:12:18;;;;;;;5.95;3.10;;;17.80;99.90;;;;;;5115560;28;20197;-71
2022/06/11 03:14:45;;;;;;;4.30;2.90;;;17.70;99.90;;;;;;5114252;28;20246;-71
2022/06/11 03:17:14;;;;;;;4.95;2.42;;;17.80;99.90;;;;;;5116092;28;20355;-71
2022/06/11 03:19:41;;;;;;;5.65;3.03;;;17.70;99.90;;;;;;5112796;28;20563;-71
2022/06/11 03:22:09;;;;;;;2.88;2.63;;;17.80;99.90;;;;;;5115134;28;20486;-71
2022/06/11 03:24:37;;;;;;;5.47;3.03;;;17.70;99.90;;;;;;5115004;28;20215;-71
2022/06/11 03:27:06;;;;;;;6.00;3.03;;;17.60;99.90;;;;;;5115815;28;20564;-71
2022/06/11 03:29:33;;;;;;;3.92;3.35;;;17.60;99.90;;;;;;5114688;28;20233;-71
2022/06/11 03:32:00;;;;;;;6.25;2.70;;;17.50;99.90;;;;;;5115615;28;20627;-71
2022/06/11 03:34:27;;;;;;;4.32;2.97;;;17.60;99.90;;;;;;5113590;28;20197;-71
2022/06/11 03:36:55;;;;;;;7.45;3.10;;;17.70;99.90;;;;;;5094782;28;20212;-71
2022/06/11 03:39:23;;;;;;;3.97;2.92;;;17.70;99.90;;;;;;5111289;28;20553;-71
2022/06/11 03:41:53;;;;;;;6.28;3.00;;;17.80;99.90;;;;;;5113763;28;20231;-71
2022/06/11 03:44:20;;;;;;;5.05;2.95;;;17.80;99.90;;;;;;5114957;28;20215;-71
2022/06/11 03:46:48;;;;;;;3.63;2.63;;;17.80;99.90;;;;;;5115151;28;20293;-71
2022/06/11 03:49:17;;;;;;;5.30;2.88;;;17.60;99.90;;;;;;5114285;28;20207;-71
2022/06/11 03:51:46;;;;;;;5.25;2.78;;;17.60;99.90;;;;;;5112708;28;20205;-71
2022/06/11 03:54:14;;;;;;;5.88;2.72;;;17.60;99.90;;;;;;5103194;28;20265;-71
2022/06/11 03:56:41;;;;;;;6.85;2.75;;;17.50;99.90;;;;;;5105991;27;20711;-71
2022/06/11 03:59:10;;;;;;;5.18;2.85;;;17.60;99.90;;;;;;5105882;28;20235;-71
2022/06/11 04:01:38;;;;;;;4.25;2.70;;;17.70;99.90;;;;;;5101941;28;20225;-71
2022/06/11 04:04:07;;;;;;;4.97;2.50;;;17.80;99.90;;;;;;5112057;28;20438;-71
2022/06/11 04:06:38;;;;;;;4.18;2.90;;;17.80;99.90;;;;;;5106150;28;20289;-71
2022/06/11 04:09:08;;;;;;;3.15;2.50;;;17.80;99.90;;;;;;5113142;28;20419;-71
2022/06/11 04:11:35;;;;;;;3.35;2.70;;;17.90;99.90;;;;;;5112577;28;20208;-71
2022/06/11 04:14:02;;;;;;;4.68;3.00;;;17.90;99.90;;;;;;5114277;28;20232;-71
2022/06/11 04:16:34;;;;;;;4.50;2.60;;;17.90;99.90;;;;;;5114375;28;20632;-71
2022/06/11 04:19:04;;;;;;;3.05;2.60;;;18.00;99.90;;;;;;5114215;28;20637;-71
2022/06/11 04:21:33;;;;;;;5.18;2.92;;;18.00;99.90;;;;;;5108820;28;20217;-71
2022/06/11 04:24:01;;;;;;;5.90;3.00;;;18.00;99.90;;;;;;5114192;28;20357;-71
2022/06/11 04:26:30;;;;;;;6.25;3.13;;;18.00;99.90;;;;;;5113882;28;20193;-71
2022/06/11 04:28:59;;;;;;;5.05;3.13;;;17.90;99.90;;;;;;5113994;28;20241;-71
2022/06/11 04:31:27;;;;;;;3.15;2.65;;;17.90;99.90;;;;;;5114162;27;20258;-71
2022/06/11 04:33:56;;;;;;;6.05;3.30;;;18.00;99.90;;;;;;5113403;28;20249;-72
2022/06/11 04:36:25;;;;;;;7.13;2.90;;;18.00;99.90;;;;;;5111685;28;20217;-71
2022/06/11 04:38:52;;;;;;;2.90;2.60;;;18.10;99.90;;;;;;5110947;28;20276;-71
2022/06/11 04:41:20;;;;;;;3.95;2.60;;;18.40;99.90;;;;;;5113758;28;20625;-71
2022/06/11 04:43:47;;;;;;;5.15;3.10;;;18.40;99.90;;;;;;5112222;28;20663;-71
2022/06/11 04:46:15;;;;;;;7.60;3.30;;;18.40;99.90;;;;;;5092681;28;20237;-71
2022/06/11 04:48:42;;;;;;;4.05;2.70;;;18.50;99.90;;;;;;5100488;28;20197;-71
2022/06/11 04:51:12;;;;;;;3.15;2.58;;;18.60;99.90;;;;;;5099035;28;20250;-71
2022/06/11 04:53:39;;;;;;;8.98;2.92;;;18.50;99.90;;;;;;5100866;28;20197;-71
2022/06/11 04:56:07;;;;;;;7.88;3.45;;;18.60;99.90;;;;;;5103370;28;20252;-71
2022/06/11 04:58:34;;;;;;;11.50;2.90;;;18.70;99.90;;;;;;5101119;28;20619;-71
2022/06/11 05:01:01;;;;;;;11.02;3.08;;;18.70;99.90;;;;;;5110338;28;20583;-71
2022/06/11 05:03:29;;;;;;;7.78;2.60;;;18.80;99.90;;;;;;5104374;27;20275;-71
2022/06/11 05:05:56;;;;;;;4.65;2.50;;;18.80;99.90;;;;;;5097907;28;20200;-71
2022/06/11 05:08:26;;;;;;;5.82;2.30;;;18.90;99.90;;;;;;5096765;28;20212;-71
2022/06/11 05:10:53;;;;;;;4.95;2.90;;;19.00;99.90;;;;;;5103461;28;20561;-71
2022/06/11 05:13:20;;;;;;;5.57;2.88;;;19.00;99.90;;;;;;5105626;28;20295;-71
2022/06/11 05:15:51;;;;;;;5.22;3.22;;;18.90;99.90;;;;;;5108073;28;20283;-71
2022/06/11 05:18:21;;;;;;;5.07;2.78;;;18.90;99.90;;;;;;5099217;27;20257;-71
2022/06/11 05:20:49;;;;;;;5.10;2.65;;;19.00;99.90;;;;;;5104657;28;20242;-71
2022/06/11 05:23:16;;;;;;;4.70;2.30;;;18.90;99.90;;;;;;5094819;28;20209;-71
2022/06/11 05:25:46;;;;;;;6.35;3.22;;;18.90;99.90;;;;;;5106325;28;20268;-71
2022/06/11 05:28:16;;;;;;;5.47;2.45;;;18.80;99.90;;;;;;5107349;27;20206;-71
2022/06/11 05:30:44;;;;;;;4.97;2.80;;;18.80;99.90;;;;;;5102096;28;20236;-71
2022/06/11 05:33:11;;;;;;;4.50;2.58;;;18.90;99.90;;;;;;5105626;27;20229;-70
2022/06/11 05:35:39;;;;;;;6.18;2.70;;;19.00;99.90;;;;;;5107690;28;20242;-70
2022/06/11 05:38:08;;;;;;;4.95;2.80;;;19.00;99.90;;;;;;5095984;28;20206;-70
2022/06/11 05:40:38;;;;;;;5.38;2.47;;;19.10;99.90;;;;;;5097732;28;20257;-71
2022/06/11 05:43:07;;;;;;;3.90;2.70;;;19.10;99.90;;;;;;5101081;28;20201;-71
2022/06/11 05:45:38;;;;;;;4.50;2.83;;;19.10;99.90;;;;;;5099470;28;20288;-71
2022/06/11 05:48:08;;;;;;;3.85;2.75;;;19.10;99.90;;;;;;5106763;28;20241;-71
2022/06/11 05:50:39;;;;;;;6.45;3.10;;;19.20;99.90;;;;;;5104144;28;20216;-71
2022/06/11 05:53:08;;;;;;;4.63;2.63;;;19.20;99.90;;;;;;5103617;28;20594;-71
2022/06/11 05:55:40;;;;;;;5.15;2.53;;;19.30;99.90;;;;;;5096559;28;20206;-71
2022/06/11 05:58:12;;;;;;;4.82;2.67;;;19.30;99.90;;;;;;5099129;28;20655;-71
2022/06/11 06:00:40;;;;;;;5.10;3.33;;;19.30;99.90;;;;;;5098662;28;20202;-71
2022/06/11 06:03:07;;;;;;;7.07;3.10;;;19.40;99.90;;;;;;5099457;28;20202;-71
2022/06/11 06:05:34;;;;;;;5.53;2.60;;;19.50;99.90;;;;;;5104165;28;20629;-71
2022/06/11 06:08:02;;;;;;;4.63;2.60;;;19.50;99.90;;;;;;5094396;28;20213;-71
2022/06/11 06:10:29;;;;;;;4.55;2.58;;;19.50;99.90;;;;;;5101756;28;20202;-71
2022/06/11 06:12:56;;;;;;;8.20;2.80;;;19.60;99.90;;;;;;5107688;28;20201;-71
2022/06/11 06:15:30;;;;;;;2.80;2.58;;;19.60;99.90;;;;;;5101314;28;20202;-71
2022/06/11 06:17:57;;;;;;;5.00;2.60;;;19.80;99.90;;;;;;5105739;28;20205;-71
2022/06/11 06:20:25;;;;;;;6.30;2.88;;;19.80;99.90;;;;;;5095851;28;20334;-70
2022/06/11 06:22:52;;;;;;;4.90;2.97;;;19.90;99.90;;;;;;5103716;28;20311;-70
2022/06/11 06:25:21;;;;;;;4.72;2.70;;;20.10;99.90;;;;;;5095973;28;20280;-70
2022/06/11 06:27:48;;;;;;;5.15;2.70;;;20.10;99.90;;;;;;5101119;27;20278;-70
2022/06/11 06:30:15;;;;;;;6.05;2.60;;;20.10;99.90;;;;;;5103767;28;20201;-70
2022/06/11 06:32:44;;;;;;;5.07;2.92;;;20.20;99.90;;;;;;5102499;28;20262;-70
2022/06/11 06:35:11;;;;;;;7.68;2.97;;;20.40;99.90;;;;;;5108840;28;20197;-70
2022/06/11 06:37:38;;;;;;;8.85;4.72;;;20.40;99.90;;;;;;5101915;28;20531;-70
2022/06/11 06:40:06;;;;;;;8.93;3.08;;;20.60;99.90;;;;;;5099427;28;20201;-70
2022/06/11 06:42:34;;;;;;;5.65;2.78;;;20.60;99.90;;;;;;5098845;28;20627;-70
2022/06/11 06:45:01;;;;;;;4.88;2.92;;;20.60;99.90;;;;;;5104363;28;20612;-70
2022/06/11 07:05:00;;;;;;;7.60;3.88;;;20.90;99.90;;;;;;5065345;22;20279;-68
2022/06/11 07:07:27;;;;;;;5.05;3.30;;;21.00;99.90;;;;;;5071449;28;20194;-68
2022/06/11 07:09:55;;;;;;;6.63;3.70;;;21.10;99.90;;;;;;5060551;28;20576;-68
2022/06/11 07:12:22;;;;;;;7.13;3.50;;;21.00;99.90;;;;;;5072071;28;20224;-68
2022/06/11 07:14:49;;;;;;;5.85;3.40;;;21.00;99.90;;;;;;5071731;28;20199;-68
2022/06/11 07:17:17;;;;;;;7.93;3.53;;;20.80;99.90;;;;;;5067262;28;20206;-68
2022/06/11 07:19:48;;;;;;;7.82;4.05;;;20.80;99.90;;;;;;5071684;28;20209;-68
2022/06/11 07:22:21;;;;;;;6.22;3.58;;;20.70;99.90;;;;;;5068823;28;20585;-68
2022/06/11 07:24:48;;;;;;;6.07;3.50;;;20.70;99.90;;;;;;5069378;28;20202;-68
2022/06/11 07:27:18;;;;;;;8.43;3.60;;;20.70;99.90;;;;;;5066627;28;20536;-68
2022/06/11 07:29:48;;;;;;;6.90;3.42;;;20.80;99.90;;;;;;5068760;28;20199;-68
2022/06/11 07:32:19;;;;;;;6.93;3.40;;;21.10;99.90;;;;;;5068792;28;20202;-68
2022/06/11 07:34:47;;;;;;;4.25;3.22;;;21.20;99.90;;;;;;5070144;28;20209;-68
2022/06/11 07:37:16;;;;;;;6.65;3.80;;;21.40;99.90;;;;;;5069634;28;20213;-68
2022/06/11 07:39:43;;;;;;;8.88;3.60;;;21.30;99.90;;;;;;5069098;28;20672;-68
2022/06/11 07:42:11;;;;;;;7.90;4.07;;;21.30;99.90;;;;;;5067200;28;20260;-68
2022/06/11 07:44:38;;;;;;;6.95;4.05;;;21.40;99.90;;;;;;5072459;28;20589;-68
2022/06/11 07:47:05;;;;;;;6.40;3.70;;;21.70;99.90;;;;;;5067773;28;20206;-68
2022/06/11 07:49:32;;;;;;;5.50;3.30;;;21.70;99.90;;;;;;5068337;28;20209;-68
2022/06/11 07:51:59;;;;;;;5.57;3.50;;;21.70;99.90;;;;;;5070763;28;20210;-68
2022/06/11 07:54:28;;;;;;;5.13;3.17;;;21.60;99.90;;;;;;5076311;28;20198;-68
2022/06/11 07:56:55;;;;;;;8.35;4.18;;;21.70;99.90;;;;;;5073427;28;20209;-68
2022/06/11 07:59:22;;;;;;;6.38;2.83;;;22.00;99.90;;;;;;5082191;28;20225;-68
2022/06/11 08:01:48;;;;;;;3.45;2.55;;;22.10;99.90;;;;;;5076899;28;20229;-68
2022/06/11 08:04:15;;;;;;;6.47;2.33;;;22.10;99.90;;;;;;5071971;28;20198;-68
2022/06/11 08:06:42;;;;;;;5.30;2.53;;;22.30;99.90;;;;;;5080078;28;20206;-68
2022/06/11 08:09:09;;;;;;;4.07;2.20;;;22.10;99.90;;;;;;5078866;28;20203;-68
2022/06/11 08:11:37;;;;;;;6.57;2.95;;;22.20;99.90;;;;;;5081444;28;20198;-68
2022/06/11 08:14:04;;;;;;;4.88;2.03;;;22.50;98.40;;;;;;5081426;28;20198;-68
2022/06/11 08:16:31;;;;;;;4.93;2.30;;;22.40;96.90;;;;;;5082939;28;20202;-70
2022/06/11 08:18:58;;;;;;;5.35;2.42;;;22.40;99.40;;;;;;5079597;28;20209;-71
2022/06/11 08:21:25;;;;;;;5.22;2.25;;;22.20;98.20;;;;;;5077643;28;20297;-71
2022/06/11 08:23:51;;;;;;;5.43;2.33;;;22.20;99.50;;;;;;5086342;28;20197;-70
2022/06/11 08:26:18;;;;;;;4.50;1.92;;;22.30;99.90;;;;;;5078143;28;20571;-71
2022/06/11 08:28:46;;;;;;;3.08;1.88;;;22.60;96.10;;;;;;5076785;28;20582;-72
2022/06/11 08:31:13;;;;;;;3.38;1.50;;;22.80;95.90;;;;;;5078886;28;20221;-71
2022/06/11 08:33:40;;;;;;;2.28;1.50;;;22.60;92.20;;;;;;5081897;28;20217;-71
2022/06/11 08:36:07;;;;;;;1.90;1.67;;;22.80;94.20;;;;;;5081315;28;20208;-71
2022/06/11 08:38:34;;;;;;;2.00;1.45;;;22.60;88.70;;;;;;5076278;28;20549;-71
2022/06/11 08:41:01;;;;;;;3.25;1.20;;;22.70;90.30;;;;;;5079664;28;20206;-71
2022/06/11 08:43:31;;;;;;;1.50;1.40;;;23.10;90.10;;;;;;5079039;28;20741;-72
2022/06/11 08:46:02;;;;;;;3.90;1.38;;;23.30;89.10;;;;;;5076361;28;20228;-71
2022/06/11 08:48:40;;;;;;;2.13;1.30;;;23.40;85.00;;;;;;5079949;28;20489;-72
2022/06/11 08:51:15;;;;;;;1.30;1.30;;;23.60;85.30;;;;;;5076856;28;20809;-72
2022/06/11 08:53:42;;;;;;;4.10;1.60;;;24.00;81.10;;;;;;5069816;28;20201;-71
2022/06/11 08:56:17;;;;;;;3.60;1.58;;;23.90;78.30;;;;;;5072098;28;20209;-71
2022/06/11 08:59:07;;;;;;;4.47;1.73;;;24.10;77.10;;;;;;5072215;28;20210;-71
2022/06/11 09:01:47;;;;;;;2.53;1.38;;;24.10;75.70;;;;;;5054050;28;20222;-71
2022/06/11 09:04:31;;;;;;;3.42;1.50;;;24.50;73.00;;;;;;5052465;28;20201;-71
2022/06/11 09:07:21;;;;;;;1.52;1.42;;;24.70;68.30;;;;;;5054615;28;20210;-71
2022/06/11 09:09:59;;;;;;;1.52;1.40;;;24.90;70.00;;;;;;5069488;28;20194;-71
2022/06/11 09:12:42;;;;;;;1.80;1.67;;;24.90;68.20;;;;;;5072996;28;20198;-71
2022/06/11 09:15:25;;;;;;;1.90;1.30;;;25.10;67.60;;;;;;5073316;28;20573;-71
2022/06/11 09:18:25;;;;;;;2.08;1.38;;;25.60;64.30;;;;;;5050120;28;20199;-71
2022/06/11 09:21:07;;;;;;;1.20;1.10;;;25.70;62.80;;;;;;5054113;28;20212;-71
2022/06/11 09:23:58;;;;;;;3.53;1.45;;;25.50;61.20;;;;;;5071577;28;20268;-72
2022/06/11 09:26:40;;;;;;;4.20;2.03;;;26.40;58.10;;;;;;5072670;28;20206;-71
2022/06/11 09:29:13;;;;;;;2.15;1.63;;;26.40;59.40;;;;;;5073265;28;20671;-71
2022/06/11 09:31:45;;;;;;;2.00;1.33;;;26.20;56.10;;;;;;5071223;28;20217;-71
2022/06/11 09:34:16;;;;;;;2.08;1.45;;;25.90;59.00;;;;;;5072077;28;20645;-71
2022/06/11 09:36:49;;;;;;;2.00;1.48;;;26.20;59.70;;;;;;5072348;28;20202;-71
2022/06/11 09:39:34;;;;;;;2.88;1.42;;;27.20;58.00;;;;;;5071911;28;20198;-71
2022/06/11 09:42:37;;;;;;;1.63;1.27;;;26.70;53.90;;;;;;5071800;28;20214;-71
2022/06/11 09:45:09;;;;;;;1.98;1.05;;;26.50;56.60;;;;;;4987932;28;20201;-71
2022/06/11 09:47:47;;;;;;;1.40;1.30;;;26.50;52.90;;;;;;5056044;28;20198;-71
2022/06/11 09:50:22;;;;;;;1.40;1.00;;;27.00;52.50;;;;;;5068003;28;20194;-71
2022/06/11 09:52:55;;;;;;;1.00;1.00;;;27.50;48.00;;;;;;5057718;28;20213;-71
2022/06/11 09:55:29;;;;;;;1.92;1.30;;;27.10;47.70;;;;;;5049490;28;20198;-71
2022/06/11 09:58:04;;;;;;;1.25;1.15;;;27.40;47.10;;;;;;5068788;28;20566;-71
2022/06/11 10:00:34;;;;;;;1.77;1.33;;;27.00;47.30;;;;;;5072691;28;20210;-72
2022/06/11 10:03:13;;;;;;;1.10;1.00;;;26.70;48.40;;;;;;5066945;28;20219;-71
2022/06/11 10:05:48;;;;;;;1.85;1.15;;;26.90;49.80;;;;;;5067434;28;20205;-71
2022/06/11 10:08:21;;;;;;;2.40;1.88;;;26.90;46.70;;;;;;5071935;28;20667;-71
2022/06/11 10:10:50;;;;;;;3.63;1.30;;;26.60;47.00;;;;;;5067549;28;20202;-72
2022/06/11 10:13:29;;;;;;;1.42;1.20;;;26.40;49.10;;;;;;5071482;28;20187;-71
2022/06/11 10:15:57;;;;;;;1.05;1.00;;;26.50;50.10;;;;;;5063238;28;20203;-71
2022/06/11 10:18:30;;;;;;;1.48;1.35;;;26.40;49.90;;;;;;5052187;28;20209;-71
2022/06/11 10:21:05;;;;;;;2.20;1.67;;;26.70;49.70;;;;;;5052623;28;20199;-71
2022/06/11 10:23:38;;;;;;;2.65;1.30;;;26.40;47.20;;;;;;5068270;28;20324;-71
2022/06/11 10:26:10;;;;;;;1.30;1.15;;;26.60;48.80;;;;;;5070878;28;20593;-71
2022/06/11 10:28:41;;;;;;;0.90;0.90;;;26.60;44.10;;;;;;5072369;28;20198;-71
2022/06/11 10:31:14;;;;;;;1.63;1.10;;;26.80;44.90;;;;;;5065113;28;20556;-71
2022/06/11 10:33:49;;;;;;;1.45;1.25;;;27.20;45.40;;;;;;5052972;28;20277;-71
2022/06/11 10:36:21;;;;;;;2.35;1.00;;;28.10;42.30;;;;;;5042648;28;20255;-71
2022/06/11 10:38:56;;;;;;;2.83;1.13;;;27.80;41.70;;;;;;5052850;28;20199;-71
2022/06/11 10:41:29;;;;;;;1.83;0.98;;;27.30;41.30;;;;;;5060799;28;20198;-72
2022/06/11 10:44:08;;;;;;;1.60;1.10;;;26.20;44.20;;;;;;5072460;28;20226;-71
2022/06/11 10:46:37;;;;;;;2.88;0.90;;;26.40;44.90;;;;;;5053863;28;20208;-71
2022/06/11 10:49:04;;;;;;;1.75;1.00;;;26.30;44.30;;;;;;5072288;28;20223;-71
2022/06/11 10:51:34;;;;;;;7.03;1.55;;;26.60;45.40;;;;;;5060680;28;20210;-71
2022/06/11 10:54:11;;;;;;;1.27;1.00;;;26.60;45.40;;;;;;5055300;28;20191;-71
2022/06/11 10:56:44;;;;;;;2.95;1.58;;;26.40;44.90;;;;;;5072205;28;20206;-71
2022/06/11 10:59:19;;;;;;;1.20;1.10;;;26.70;46.60;;;;;;5071588;28;20198;-72
2022/06/11 11:01:52;;;;;;;1.40;1.10;;;26.70;44.60;;;;;;5072551;28;20202;-71
2022/06/11 11:04:30;;;;;;;2.10;1.13;;;27.20;45.50;;;;;;5068315;28;20196;-71
2022/06/11 11:07:10;;;;;;;1.67;0.90;;;27.40;44.50;;;;;;5050733;28;20673;-71
2022/06/11 11:09:37;;;;;;;1.10;0.93;;;27.40;44.50;;;;;;5053819;28;20203;-71
2022/06/11 11:12:07;;;;;;;1.60;1.10;;;27.50;44.20;;;;;;5056103;28;20213;-71
2022/06/11 11:14:39;;;;;;;1.30;1.00;;;27.70;42.30;;;;;;5050011;28;20203;-71
2022/06/11 11:17:16;;;;;;;1.58;1.10;;;28.10;41.80;;;;;;5068147;28;20217;-71
2022/06/11 11:20:29;;;;;;;1.70;1.00;;;27.70;39.80;;;;;;5071307;28;20198;-71
2022/06/11 11:22:36;;;;;;;1.00;1.00;;;26.90;42.70;;;;;;5063450;28;20222;-71
2022/06/11 11:25:11;;;;;;;1.00;1.00;;;26.90;43.50;;;;;;5050022;28;20221;-71
2022/06/11 11:27:44;;;;;;;2.10;1.25;;;26.70;41.80;;;;;;5061171;28;20571;-71
2022/06/11 11:30:26;;;;;;;1.65;0.70;;;27.60;40.70;;;;;;5054244;28;20207;-71
2022/06/11 11:32:53;;;;;;;3.08;1.20;;;27.90;41.60;;;;;;5060606;28;20205;-69
2022/06/11 11:35:24;;;;;;;1.30;1.17;;;28.00;41.90;;;;;;5068647;28;20286;-72
2022/06/11 11:38:00;;;;;;;1.38;0.98;;;28.70;39.30;;;;;;5058737;28;20680;-72
2022/06/11 11:40:29;;;;;;;1.15;0.98;;;28.20;38.60;;;;;;5070323;28;20583;-72
2022/06/11 11:42:58;;;;;;;2.80;1.10;;;28.50;36.60;;;;;;5071855;28;20241;-72
2022/06/11 11:45:27;;;;;;;1.20;1.00;;;28.40;39.70;;;;;;5072492;28;20218;-72
2022/06/11 11:48:01;;;;;;;1.70;1.00;;;28.40;36.00;;;;;;5071618;28;20333;-72
2022/06/11 11:50:32;;;;;;;0.88;0.88;;;28.10;37.20;;;;;;5073057;28;20592;-72
2022/06/11 11:53:05;;;;;;;1.20;1.10;;;27.30;36.80;;;;;;5071164;28;20544;-72
2022/06/11 11:55:34;;;;;;;2.15;1.30;;;27.20;36.50;;;;;;5072029;28;20204;-72
2022/06/11 11:58:04;;;;;;;1.13;1.10;;;26.70;36.50;;;;;;5073355;28;20202;-72
2022/06/11 12:00:40;;;;;;;2.67;1.50;;;26.30;37.50;;;;;;5074927;28;20202;-72
2022/06/11 12:03:15;;;;;;;1.20;1.10;;;26.10;40.70;;;;;;5073550;28;20575;-72
2022/06/11 12:05:50;;;;;;;1.25;1.25;;;26.00;42.80;;;;;;5054705;28;20213;-72
2022/06/11 12:08:22;;;;;;;1.95;1.35;;;26.00;42.20;;;;;;5073458;28;20209;-72
2022/06/11 12:10:51;;;;;;;1.35;1.25;;;26.40;44.50;;;;;;5073478;28;20671;-71
2022/06/11 12:13:26;;;;;;;1.27;1.27;;;26.40;44.10;;;;;;5071106;28;20203;-72
2022/06/11 12:15:56;;;;;;;1.63;1.38;;;26.80;43.00;;;;;;5072309;28;20656;-72
2022/06/11 12:18:31;;;;;;;1.33;1.33;;;26.40;43.30;;;;;;5069917;28;20198;-72
2022/06/11 12:21:01;;;;;;;1.45;1.13;;;26.00;44.20;;;;;;5069433;28;20209;-72
2022/06/11 12:23:36;;;;;;;1.38;1.27;;;26.60;43.80;;;;;;5071276;28;20218;-72
2022/06/11 12:26:07;;;;;;;1.70;1.48;;;27.10;42.70;;;;;;5071092;28;20563;-72
2022/06/11 12:28:38;;;;;;;1.75;1.65;;;26.60;41.80;;;;;;5063639;28;20198;-72
2022/06/11 12:31:05;;;;;;;3.42;1.65;;;26.30;42.10;;;;;;5071326;28;20195;-72
2022/06/11 12:33:32;;;;;;;2.40;2.20;;;26.30;43.80;;;;;;5076605;28;20194;-72
2022/06/11 12:36:07;;;;;;;3.10;1.33;;;26.30;43.40;;;;;;5082057;28;20209;-72
2022/06/11 12:38:47;;;;;;;1.48;1.38;;;26.70;43.90;;;;;;5070603;28;20198;-71
2022/06/11 12:41:22;;;;;;;4.45;1.75;;;27.40;44.20;;;;;;5072565;28;20554;-72
2022/06/11 12:43:56;;;;;;;1.73;1.58;;;28.10;42.10;;;;;;5070718;28;20218;-72
2022/06/11 12:46:33;;;;;;;1.75;1.52;;;27.80;41.60;;;;;;5073060;28;20225;-72
2022/06/11 12:49:14;;;;;;;2.80;1.80;;;27.40;40.50;;;;;;5067887;28;20232;-72
2022/06/11 12:52:00;;;;;;;1.67;1.45;;;27.30;36.60;;;;;;5073496;28;20212;-72
2022/06/11 12:54:45;;;;;;;1.70;1.48;;;27.30;39.10;;;;;;5066333;28;20194;-72
2022/06/11 12:57:33;;;;;;;1.40;1.30;;;28.00;40.40;;;;;;5073070;28;20209;-72
2022/06/11 13:00:11;;;;;;;1.30;1.17;;;28.40;37.70;;;;;;5053884;28;20206;-72
2022/06/11 13:02:54;;;;;;;1.10;1.10;;;28.10;35.40;;;;;;5068038;28;20206;-72
2022/06/11 13:05:40;;;;;;;1.50;1.40;;;27.80;33.90;;;;;;5062522;28;20229;-72
2022/06/11 13:08:25;;;;;;;1.73;1.08;;;27.20;36.10;;;;;;5052923;28;20202;-72
2022/06/11 13:10:58;;;;;;;2.28;1.42;;;27.70;37.80;;;;;;5053827;28;20199;-72
2022/06/11 13:13:49;;;;;;;2.45;2.00;;;27.80;35.10;;;;;;5053264;28;20206;-72
2022/06/11 13:16:22;;;;;;;3.00;2.20;;;28.10;34.10;;;;;;5059965;28;20581;-72
2022/06/11 13:19:14;;;;;;;2.30;1.20;;;28.40;37.60;;;;;;5067870;28;20547;-72
2022/06/11 13:21:46;;;;;;;1.55;1.45;;;27.90;33.70;;;;;;5070044;28;20653;-71
2022/06/11 13:24:21;;;;;;;2.40;1.05;;;27.90;34.30;;;;;;5069729;28;20707;-72
2022/06/11 13:27:01;;;;;;;1.17;1.08;;;27.00;34.10;;;;;;5068404;28;20198;-71
2022/06/11 13:29:50;;;;;;;3.00;1.67;;;26.30;34.60;;;;;;5071513;28;20730;-72